createdAt,value
2023-01-05T00:00:00.000Z,8.73
2023-01-05T00:15:00.000Z,9.36
2023-01-05T00:30:00.000Z,6.71
2023-01-05T00:45:00.000Z,6.12
2023-01-05T01:00:00.000Z,8.18
2023-01-05T01:15:00.000Z,7.47
2023-01-05T01:30:00.000Z,8.02
2023-01-05T01:45:00.000Z,10.01
2023-01-05T02:00:00.000Z,7.66
2023-01-05T02:15:00.000Z,7.76
2023-01-05T02:30:00.000Z,7.38
2023-01-05T02:45:00.000Z,7.38
2023-01-05T03:00:00.000Z,7.31
2023-01-05T03:15:00.000Z,7.51
2023-01-05T03:30:00.000Z,7.46
2023-01-05T03:45:00.000Z,7.31
2023-01-05T04:00:00.000Z,7.78
2023-01-05T04:15:00.000Z,7.93
2023-01-05T04:30:00.000Z,8.98
2023-01-05T04:45:00.000Z,8.07
2023-01-05T05:00:00.000Z,10.34
2023-01-05T05:15:00.000Z,6.66
2023-01-05T05:30:00.000Z,7.47
2023-01-05T05:45:00.000Z,6.41
2023-01-05T06:00:00.000Z,16.6
2023-01-05T06:15:00.000Z,17.64
2023-01-05T06:30:00.000Z,5.49
2023-01-05T06:45:00.000Z,5.53
2023-01-05T07:00:00.000Z,4.21
2023-01-05T07:15:00.000Z,4.25
2023-01-05T07:30:00.000Z,4.25
2023-01-05T07:45:00.000Z,4.45
2023-01-05T08:00:00.000Z,4.31
2023-01-05T08:15:00.000Z,4.11
2023-01-05T08:30:00.000Z,7.02
2023-01-05T08:45:00.000Z,4.2
2023-01-05T09:00:00.000Z,4.15
2023-01-05T09:15:00.000Z,4.15
2023-01-05T09:30:00.000Z,4.13
2023-01-05T09:45:00.000Z,4.25
2023-01-05T10:00:00.000Z,4.05
2023-01-05T10:15:00.000Z,4.26
2023-01-05T10:30:00.000Z,4.47
2023-01-05T10:45:00.000Z,4.95
2023-01-05T11:00:00.000Z,4.34
2023-01-05T11:15:00.000Z,4.16
2023-01-05T11:30:00.000Z,4.18
2023-01-05T11:45:00.000Z,4.64
2023-01-05T12:00:00.000Z,4.19
2023-01-05T12:30:00.000Z,5.38
2023-01-05T12:45:00.000Z,5.36
2023-01-05T13:00:00.000Z,5.26
2023-01-05T13:15:00.000Z,5.67
2023-01-05T13:30:00.000Z,4.52
2023-01-05T13:45:00.000Z,5.54
2023-01-05T14:00:00.000Z,6.56
2023-01-05T14:15:00.000Z,7.78
2023-01-05T14:30:00.000Z,6.39
2023-01-05T14:45:00.000Z,4.6
2023-01-05T15:00:00.000Z,7.67
2023-01-05T15:15:00.000Z,6.55
2023-01-05T15:30:00.000Z,17.91
2023-01-05T15:45:00.000Z,16.88
2023-01-05T16:00:00.000Z,12.11
2023-01-05T16:15:00.000Z,13.32
2023-01-05T16:30:00.000Z,8.66
2023-01-05T16:45:00.000Z,9.4
2023-01-05T17:00:00.000Z,7.4
2023-01-05T17:15:00.000Z,7.79
2023-01-05T17:30:00.000Z,8.36
2023-01-05T17:45:00.000Z,9.89
2023-01-05T18:00:00.000Z,9.28
2023-01-05T18:15:00.000Z,11.94
2023-01-05T18:30:00.000Z,13.36
2023-01-05T18:45:00.000Z,14.08
2023-01-05T19:00:00.000Z,14.4
2023-01-05T19:15:00.000Z,18.25
2023-01-05T19:30:00.000Z,15.69
2023-01-05T19:45:00.000Z,13.64
2023-01-05T20:00:00.000Z,13.09
2023-01-05T20:15:00.000Z,12.63
2023-01-05T20:30:00.000Z,12.27
2023-01-05T20:45:00.000Z,14.55
2023-01-05T21:00:00.000Z,14.41
2023-01-05T21:15:00.000Z,11.84
2023-01-05T21:30:00.000Z,11.33
2023-01-05T21:45:00.000Z,11.19
2023-01-05T22:00:00.000Z,12.88
2023-01-05T22:15:00.000Z,12.61
2023-01-05T22:30:00.000Z,14.85
2023-01-05T22:45:00.000Z,14.11
2023-01-05T23:00:00.000Z,16.47
2023-01-05T23:15:00.000Z,14.94
2023-01-05T23:30:00.000Z,17.33
2023-01-05T23:45:00.000Z,17.42
